sensor_id;sensor_type;location;lat;lon;timestamp;pressure;altitude;pressure_sealevel;temperature;humidity
6433;BME280;3249;42.690;23.260;2024-01-30T00:00:24;96110.94;;;-1.22;98.48
6433;BME280;3249;42.690;23.260;2024-01-30T00:02:54;96112.03;;;-1.38;99.32
6433;BME280;3249;42.690;23.260;2024-01-30T00:05:23;96111.94;;;-1.37;100.00
6433;BME280;3249;42.690;23.260;2024-01-30T00:07:52;96116.19;;;-1.37;99.34
6433;BME280;3249;42.690;23.260;2024-01-30T00:10:22;96118.63;;;-1.23;97.65
6433;BME280;3249;42.690;23.260;2024-01-30T00:12:52;96120.84;;;-1.19;96.78
6433;BME280;3249;42.690;23.260;2024-01-30T00:15:24;96115.88;;;-1.20;97.89
6433;BME280;3249;42.690;23.260;2024-01-30T00:17:53;96118.22;;;-1.05;97.28
6433;BME280;3249;42.690;23.260;2024-01-30T00:20:22;96124.59;;;-0.99;96.27
6433;BME280;3249;42.690;23.260;2024-01-30T00:22:52;96073.66;;;-1.18;94.86
6433;BME280;3249;42.690;23.260;2024-01-30T00:25:22;96121.16;;;-0.98;93.98
6433;BME280;3249;42.690;23.260;2024-01-30T00:27:51;96126.31;;;-1.00;94.68
6433;BME280;3249;42.690;23.260;2024-01-30T00:30:20;96124.47;;;-0.85;93.64
6433;BME280;3249;42.690;23.260;2024-01-30T00:32:53;96122.78;;;-0.97;91.71
6433;BME280;3249;42.690;23.260;2024-01-30T00:35:23;96125.09;;;-0.94;92.57
6433;BME280;3249;42.690;23.260;2024-01-30T00:37:53;96115.41;;;-1.13;92.61
6433;BME280;3249;42.690;23.260;2024-01-30T00:40:22;96119.81;;;-1.16;92.95
6433;BME280;3249;42.690;23.260;2024-01-30T00:42:51;96119.03;;;-0.92;92.11
6433;BME280;3249;42.690;23.260;2024-01-30T00:45:21;96118.81;;;-1.01;91.67
6433;BME280;3249;42.690;23.260;2024-01-30T00:47:53;96076.28;;;-1.20;91.92
6433;BME280;3249;42.690;23.260;2024-01-30T00:50:22;96116.19;;;-1.00;90.79
6433;BME280;3249;42.690;23.260;2024-01-30T00:52:51;96112.75;;;-0.99;90.45
6433;BME280;3249;42.690;23.260;2024-01-30T00:55:21;96115.09;;;-0.83;89.25
6433;BME280;3249;42.690;23.260;2024-01-30T00:57:50;96112.88;;;-0.88;89.04
6433;BME280;3249;42.690;23.260;2024-01-30T01:00:20;96115.09;;;-0.96;90.18
6433;BME280;3249;42.690;23.260;2024-01-30T01:02:57;96108.50;;;-0.86;90.66
6433;BME280;3249;42.690;23.260;2024-01-30T01:05:26;96118.63;;;-0.98;92.01
6433;BME280;3249;42.690;23.260;2024-01-30T01:07:57;96111.75;;;-0.96;91.63
6433;BME280;3249;42.690;23.260;2024-01-30T01:10:26;96108.31;;;-1.08;92.95
6433;BME280;3249;42.690;23.260;2024-01-30T01:12:56;96104.78;;;-1.05;95.43
6433;BME280;3249;42.690;23.260;2024-01-30T01:15:25;96108.53;;;-0.98;93.53
6433;BME280;3249;42.690;23.260;2024-01-30T01:17:57;96102.66;;;-0.86;92.97
6433;BME280;3249;42.690;23.260;2024-01-30T01:20:26;96112.88;;;-0.88;92.80
6433;BME280;3249;42.690;23.260;2024-01-30T01:22:56;96118.50;;;-0.72;91.56
6433;BME280;3249;42.690;23.260;2024-01-30T01:25:25;96116.47;;;-0.67;91.28
6433;BME280;3249;42.690;23.260;2024-01-30T01:27:54;96111.75;;;-1.21;92.99
6433;BME280;3249;42.690;23.260;2024-01-30T01:30:23;96092.84;;;-1.28;95.90
6433;BME280;3249;42.690;23.260;2024-01-30T01:32:52;96058.19;;;-1.64;96.64
6433;BME280;3249;42.690;23.260;2024-01-30T01:35:30;96104.28;;;-1.23;96.65
6433;BME280;3249;42.690;23.260;2024-01-30T01:37:59;96111.94;;;-1.37;97.48
6433;BME280;3249;42.690;23.260;2024-01-30T01:40:29;96115.25;;;-1.49;98.24
6433;BME280;3249;42.690;23.260;2024-01-30T01:42:58;96107.94;;;-1.66;99.45
6433;BME280;3249;42.690;23.260;2024-01-30T01:45:28;96116.34;;;-1.65;98.93
6433;BME280;3249;42.690;23.260;2024-01-30T01:47:57;96103.66;;;-1.78;99.82
6433;BME280;3249;42.690;23.260;2024-01-30T01:50:29;96109.03;;;-1.82;99.12
6433;BME280;3249;42.690;23.260;2024-01-30T01:52:58;96113.19;;;-1.95;100.00
6433;BME280;3249;42.690;23.260;2024-01-30T01:55:28;96106.94;;;-2.02;100.00
6433;BME280;3249;42.690;23.260;2024-01-30T01:57:59;96109.47;;;-2.02;100.00
6433;BME280;3249;42.690;23.260;2024-01-30T02:00:29;96108.84;;;-2.06;100.00
6433;BME280;3249;42.690;23.260;2024-01-30T02:02:59;96099.66;;;-2.07;100.00
6433;BME280;3249;42.690;23.260;2024-01-30T02:05:32;96050.22;;;-2.36;100.00
6433;BME280;3249;42.690;23.260;2024-01-30T02:08:01;96115.22;;;-2.00;100.00
6433;BME280;3249;42.690;23.260;2024-01-30T02:10:30;96118.66;;;-2.01;100.00
6433;BME280;3249;42.690;23.260;2024-01-30T02:13:00;96126.31;;;-2.03;99.41
6433;BME280;3249;42.690;23.260;2024-01-30T02:15:31;96118.78;;;-1.90;99.69
6433;BME280;3249;42.690;23.260;2024-01-30T02:18:00;96127.34;;;-1.93;98.49
6433;BME280;3249;42.690;23.260;2024-01-30T02:20:34;96125.34;;;-1.88;98.60
6433;BME280;3249;42.690;23.260;2024-01-30T02:23:07;96121.72;;;-1.84;97.08
6433;BME280;3249;42.690;23.260;2024-01-30T02:25:40;96123.16;;;-1.80;96.07
6433;BME280;3249;42.690;23.260;2024-01-30T02:28:10;96116.28;;;-1.78;95.68
6433;BME280;3249;42.690;23.260;2024-01-30T02:30:42;96118.91;;;-1.79;95.35
6433;BME280;3249;42.690;23.260;2024-01-30T02:33:12;96107.94;;;-1.66;95.21
6433;BME280;3249;42.690;23.260;2024-01-30T02:35:41;96108.66;;;-1.64;96.86
6433;BME280;3249;42.690;23.260;2024-01-30T02:38:15;96058.75;;;-1.85;95.71
6433;BME280;3249;42.690;23.260;2024-01-30T02:40:45;96111.38;;;-1.67;96.53
6433;BME280;3249;42.690;23.260;2024-01-30T02:43:14;96115.72;;;-1.69;95.50
6433;BME280;3249;42.690;23.260;2024-01-30T02:45:43;96113.72;;;-1.64;96.01
6433;BME280;3249;42.690;23.260;2024-01-30T02:48:13;96113.41;;;-1.59;95.63
6433;BME280;3249;42.690;23.260;2024-01-30T02:50:43;96054.28;;;-1.94;93.95
6433;BME280;3249;42.690;23.260;2024-01-30T02:53:15;96115.25;;;-1.49;96.28
6433;BME280;3249;42.690;23.260;2024-01-30T02:55:44;96108.06;;;-1.55;93.73
6433;BME280;3249;42.690;23.260;2024-01-30T02:58:14;96123.63;;;-1.48;93.98
6433;BME280;3249;42.690;23.260;2024-01-30T03:00:43;96109.59;;;-1.52;93.08
6433;BME280;3249;42.690;23.260;2024-01-30T03:03:12;96081.28;;;-1.70;93.35
6433;BME280;3249;42.690;23.260;2024-01-30T03:05:42;96103.25;;;-1.45;91.63
6433;BME280;3249;42.690;23.260;2024-01-30T03:08:11;96106.78;;;-1.48;91.94
6433;BME280;3249;42.690;23.260;2024-01-30T03:10:44;96108.47;;;-1.48;91.85
6433;BME280;3249;42.690;23.260;2024-01-30T03:13:13;96105.03;;;-1.47;92.53
6433;BME280;3249;42.690;23.260;2024-01-30T03:15:42;96101.41;;;-1.43;92.61
6433;BME280;3249;42.690;23.260;2024-01-30T03:18:11;96104.47;;;-1.38;92.04
6433;BME280;3249;42.690;23.260;2024-01-30T03:20:41;96103.44;;;-1.48;90.86
6433;BME280;3249;42.690;23.260;2024-01-30T03:23:10;96105.88;;;-1.47;92.02
6433;BME280;3249;42.690;23.260;2024-01-30T03:25:39;96079.75;;;-1.85;89.66
6433;BME280;3249;42.690;23.260;2024-01-30T03:28:11;96110.00;;;-1.58;90.77
6433;BME280;3249;42.690;23.260;2024-01-30T03:30:41;96096.31;;;-1.68;89.86
6433;BME280;3249;42.690;23.260;2024-01-30T03:33:10;96105.22;;;-1.63;92.29
6433;BME280;3249;42.690;23.260;2024-01-30T03:35:40;96105.13;;;-1.61;92.58
6433;BME280;3249;42.690;23.260;2024-01-30T03:38:09;96096.69;;;-1.48;90.16
6433;BME280;3249;42.690;23.260;2024-01-30T03:40:38;96093.84;;;-1.43;89.55
6433;BME280;3249;42.690;23.260;2024-01-30T03:43:07;96098.56;;;-1.51;87.75
6433;BME280;3249;42.690;23.260;2024-01-30T03:45:39;96095.34;;;-1.53;87.75
6433;BME280;3249;42.690;23.260;2024-01-30T03:48:10;96080.09;;;-1.64;87.49
6433;BME280;3249;42.690;23.260;2024-01-30T03:50:45;96094.75;;;-1.57;85.42
6433;BME280;3249;42.690;23.260;2024-01-30T03:53:14;96085.84;;;-1.50;86.71
6433;BME280;3249;42.690;23.260;2024-01-30T03:55:43;96086.47;;;-1.59;86.90
6433;BME280;3249;42.690;23.260;2024-01-30T03:58:14;96086.66;;;-1.62;86.74
6433;BME280;3249;42.690;23.260;2024-01-30T04:00:46;96088.28;;;-1.61;85.20
6433;BME280;3249;42.690;23.260;2024-01-30T04:03:15;96087.47;;;-1.61;85.99
6433;BME280;3249;42.690;23.260;2024-01-30T04:05:45;96085.03;;;-1.63;85.57
6433;BME280;3249;42.690;23.260;2024-01-30T04:08:14;96086.66;;;-1.62;85.08
6433;BME280;3249;42.690;23.260;2024-01-30T04:10:46;96091.47;;;-1.71;84.68
6433;BME280;3249;42.690;23.260;2024-01-30T04:13:15;96086.91;;;-1.79;84.25
6433;BME280;3249;42.690;23.260;2024-01-30T04:15:47;96083.47;;;-1.78;85.71
6433;BME280;3249;42.690;23.260;2024-01-30T04:18:16;96086.41;;;-1.84;86.55
6433;BME280;3249;42.690;23.260;2024-01-30T04:20:46;96087.00;;;-1.80;86.45
6433;BME280;3249;42.690;23.260;2024-01-30T04:23:15;96082.47;;;-1.88;86.69
6433;BME280;3249;42.690;23.260;2024-01-30T04:25:44;96087.75;;;-1.78;86.41
6433;BME280;3249;42.690;23.260;2024-01-30T04:28:13;96087.53;;;-1.75;86.70
6433;BME280;3249;42.690;23.260;2024-01-30T04:30:42;96098.13;;;-1.83;86.35
6433;BME280;3249;42.690;23.260;2024-01-30T04:33:15;96093.47;;;-1.89;87.82
6433;BME280;3249;42.690;23.260;2024-01-30T04:35:44;96097.06;;;-1.93;87.74
6433;BME280;3249;42.690;23.260;2024-01-30T04:38:14;96098.53;;;-1.89;86.90
6433;BME280;3249;42.690;23.260;2024-01-30T04:40:43;96098.53;;;-1.89;86.12
6433;BME280;3249;42.690;23.260;2024-01-30T04:43:12;96104.84;;;-1.96;88.03
6433;BME280;3249;42.690;23.260;2024-01-30T04:45:42;96104.03;;;-1.96;88.85
6433;BME280;3249;42.690;23.260;2024-01-30T04:48:11;96101.13;;;-1.90;86.84
6433;BME280;3249;42.690;23.260;2024-01-30T04:50:43;96108.59;;;-1.89;87.53
6433;BME280;3249;42.690;23.260;2024-01-30T04:53:12;96109.34;;;-2.01;87.97
6433;BME280;3249;42.690;23.260;2024-01-30T04:55:41;96107.03;;;-2.04;89.94
6433;BME280;3249;42.690;23.260;2024-01-30T04:58:10;96131.00;;;-1.84;90.57
6433;BME280;3249;42.690;23.260;2024-01-30T05:00:40;96129.25;;;-1.96;91.24
6433;BME280;3249;42.690;23.260;2024-01-30T05:03:10;96122.50;;;-1.96;91.25
6433;BME280;3249;42.690;23.260;2024-01-30T05:05:39;96127.34;;;-1.93;90.15
6433;BME280;3249;42.690;23.260;2024-01-30T05:08:10;96116.03;;;-2.00;90.28
6433;BME280;3249;42.690;23.260;2024-01-30T05:10:40;96124.06;;;-2.07;92.31
6433;BME280;3249;42.690;23.260;2024-01-30T05:13:10;96125.88;;;-2.09;93.71
6433;BME280;3249;42.690;23.260;2024-01-30T05:15:39;96128.41;;;-2.09;92.46
6433;BME280;3249;42.690;23.260;2024-01-30T05:18:09;96121.09;;;-2.14;94.29
6433;BME280;3249;42.690;23.260;2024-01-30T05:20:39;96130.28;;;-2.13;92.96
6433;BME280;3249;42.690;23.260;2024-01-30T05:23:11;96130.84;;;-2.08;94.25
6433;BME280;3249;42.690;23.260;2024-01-30T05:25:40;96135.53;;;-2.16;95.27
6433;BME280;3249;42.690;23.260;2024-01-30T05:28:09;96133.53;;;-2.11;94.39
6433;BME280;3249;42.690;23.260;2024-01-30T05:30:39;96123.81;;;-2.17;94.88
6433;BME280;3249;42.690;23.260;2024-01-30T05:33:08;96128.84;;;-2.17;95.41
6433;BME280;3249;42.690;23.260;2024-01-30T05:35:38;96128.44;;;-2.23;94.76
6433;BME280;3249;42.690;23.260;2024-01-30T05:38:07;96130.63;;;-2.05;94.84
6433;BME280;3249;42.690;23.260;2024-01-30T05:40:39;96126.31;;;-2.03;93.95
6433;BME280;3249;42.690;23.260;2024-01-30T05:43:09;96131.00;;;-2.11;93.82
6433;BME280;3249;42.690;23.260;2024-01-30T05:45:38;96123.47;;;-2.25;93.16
6433;BME280;3249;42.690;23.260;2024-01-30T05:48:07;96130.59;;;-2.17;93.22
6433;BME280;3249;42.690;23.260;2024-01-30T05:50:37;96129.59;;;-2.15;93.67
6433;BME280;3249;42.690;23.260;2024-01-30T05:53:06;96128.00;;;-2.30;93.84
6433;BME280;3249;42.690;23.260;2024-01-30T05:55:35;96128.16;;;-2.19;93.76
6433;BME280;3249;42.690;23.260;2024-01-30T05:58:08;96116.06;;;-2.14;91.26
6433;BME280;3249;42.690;23.260;2024-01-30T06:00:37;96121.16;;;-2.28;91.38
6433;BME280;3249;42.690;23.260;2024-01-30T06:03:07;96122.69;;;-2.25;94.53
6433;BME280;3249;42.690;23.260;2024-01-30T06:05:36;96125.47;;;-2.30;91.13
6433;BME280;3249;42.690;23.260;2024-01-30T06:08:06;96122.34;;;-2.33;90.83
6433;BME280;3249;42.690;23.260;2024-01-30T06:10:35;96131.78;;;-2.37;91.32
6433;BME280;3249;42.690;23.260;2024-01-30T06:13:08;96127.81;;;-2.41;91.27
6433;BME280;3249;42.690;23.260;2024-01-30T06:15:37;96132.94;;;-2.28;89.36
6433;BME280;3249;42.690;23.260;2024-01-30T06:18:07;96133.41;;;-2.36;87.42
6433;BME280;3249;42.690;23.260;2024-01-30T06:20:36;96128.38;;;-2.36;86.38
6433;BME280;3249;42.690;23.260;2024-01-30T06:23:05;96136.06;;;-2.25;86.42
6433;BME280;3249;42.690;23.260;2024-01-30T06:25:38;96141.28;;;-2.14;86.80
6433;BME280;3249;42.690;23.260;2024-01-30T06:28:11;96137.84;;;-2.13;86.24
6433;BME280;3249;42.690;23.260;2024-01-30T06:30:40;96131.91;;;-2.12;84.30
6433;BME280;3249;42.690;23.260;2024-01-30T06:33:12;96130.00;;;-2.08;84.79
6433;BME280;3249;42.690;23.260;2024-01-30T06:35:41;96142.16;;;-1.74;82.90
6433;BME280;3249;42.690;23.260;2024-01-30T06:38:11;96130.41;;;-1.75;80.10
6433;BME280;3249;42.690;23.260;2024-01-30T06:40:42;96140.75;;;-1.66;78.89
6433;BME280;3249;42.690;23.260;2024-01-30T06:43:13;96142.75;;;-1.71;80.50
6433;BME280;3249;42.690;23.260;2024-01-30T06:45:43;96134.38;;;-1.71;81.15
6433;BME280;3249;42.690;23.260;2024-01-30T06:48:12;96140.28;;;-1.58;80.88
6433;BME280;3249;42.690;23.260;2024-01-30T06:50:42;96143.22;;;-1.52;81.58
6433;BME280;3249;42.690;23.260;2024-01-30T06:53:12;96145.84;;;-1.53;78.98
6433;BME280;3249;42.690;23.260;2024-01-30T06:55:49;96142.81;;;-1.46;77.58
6433;BME280;3249;42.690;23.260;2024-01-30T06:58:22;96137.78;;;-1.46;76.51
6433;BME280;3249;42.690;23.260;2024-01-30T07:00:51;96151.72;;;-1.40;73.59
6433;BME280;3249;42.690;23.260;2024-01-30T07:03:21;96152.56;;;-1.27;74.03
6433;BME280;3249;42.690;23.260;2024-01-30T07:05:51;96137.81;;;-1.21;74.66
6433;BME280;3249;42.690;23.260;2024-01-30T07:08:20;96148.75;;;-0.83;71.42
6433;BME280;3249;42.690;23.260;2024-01-30T07:10:50;96158.97;;;-0.72;71.64
6433;BME280;3249;42.690;23.260;2024-01-30T07:13:24;96151.88;;;-0.67;71.14
6433;BME280;3249;42.690;23.260;2024-01-30T07:15:54;96155.41;;;-0.57;68.41
6433;BME280;3249;42.690;23.260;2024-01-30T07:18:25;96159.06;;;-0.73;69.01
6433;BME280;3249;42.690;23.260;2024-01-30T07:20:54;96158.53;;;-0.53;67.20
6433;BME280;3249;42.690;23.260;2024-01-30T07:23:23;96157.91;;;-0.32;65.55
6433;BME280;3249;42.690;23.260;2024-01-30T07:25:53;96158.44;;;-0.39;65.97
6433;BME280;3249;42.690;23.260;2024-01-30T07:28:27;96163.53;;;-0.16;62.83
6433;BME280;3249;42.690;23.260;2024-01-30T07:30:57;96155.25;;;-0.30;60.15
6433;BME280;3249;42.690;23.260;2024-01-30T07:33:26;96158.78;;;-0.20;59.71
6433;BME280;3249;42.690;23.260;2024-01-30T07:35:55;96123.47;;;-0.22;60.23
6433;BME280;3249;42.690;23.260;2024-01-30T07:38:24;96164.81;;;0.03;56.68
6433;BME280;3249;42.690;23.260;2024-01-30T07:40:54;96170.84;;;0.13;56.88
6433;BME280;3249;42.690;23.260;2024-01-30T07:43:27;96157.41;;;0.23;55.30
6433;BME280;3249;42.690;23.260;2024-01-30T07:45:56;96158.44;;;-0.03;54.54
6433;BME280;3249;42.690;23.260;2024-01-30T07:48:26;96161.56;;;0.00;55.70
6433;BME280;3249;42.690;23.260;2024-01-30T07:50:56;96159.59;;;-0.20;55.74
6433;BME280;3249;42.690;23.260;2024-01-30T07:53:27;96153.97;;;0.00;56.85
6433;BME280;3249;42.690;23.260;2024-01-30T07:55:56;96145.88;;;-0.05;56.26
6433;BME280;3249;42.690;23.260;2024-01-30T07:58:28;96152.03;;;0.28;54.98
6433;BME280;3249;42.690;23.260;2024-01-30T08:00:57;96164.94;;;0.48;53.34
6433;BME280;3249;42.690;23.260;2024-01-30T08:03:26;96154.97;;;-0.26;54.91
6433;BME280;3249;42.690;23.260;2024-01-30T08:05:56;96151.13;;;-0.31;57.63
6433;BME280;3249;42.690;23.260;2024-01-30T08:08:26;96148.69;;;-0.33;58.35
6433;BME280;3249;42.690;23.260;2024-01-30T08:10:55;96151.34;;;-0.11;56.48
6433;BME280;3249;42.690;23.260;2024-01-30T08:13:24;96143.47;;;-0.19;57.51
6433;BME280;3249;42.690;23.260;2024-01-30T08:15:56;96153.31;;;-0.14;57.48
6433;BME280;3249;42.690;23.260;2024-01-30T08:18:25;96156.41;;;-0.11;57.95
6433;BME280;3249;42.690;23.260;2024-01-30T08:20:55;96149.50;;;-0.32;56.81
6433;BME280;3249;42.690;23.260;2024-01-30T08:23:25;96151.22;;;-0.33;57.93
6433;BME280;3249;42.690;23.260;2024-01-30T08:25:54;96154.31;;;-0.53;57.86
6433;BME280;3249;42.690;23.260;2024-01-30T08:28:23;96146.56;;;-0.39;60.65
6433;BME280;3249;42.690;23.260;2024-01-30T08:30:52;96147.97;;;-0.35;59.82
6433;BME280;3249;42.690;23.260;2024-01-30T08:33:25;96157.59;;;-0.27;59.28
6433;BME280;3249;42.690;23.260;2024-01-30T08:35:54;96143.47;;;-0.55;59.38
6433;BME280;3249;42.690;23.260;2024-01-30T08:38:23;96153.72;;;-0.20;59.00
6433;BME280;3249;42.690;23.260;2024-01-30T08:40:52;96154.78;;;0.01;57.19
6433;BME280;3249;42.690;23.260;2024-01-30T08:43:21;96163.00;;;-0.08;56.68
6433;BME280;3249;42.690;23.260;2024-01-30T08:45:51;96140.47;;;-0.24;56.50
6433;BME280;3249;42.690;23.260;2024-01-30T08:48:20;96158.66;;;-0.06;59.46
6433;BME280;3249;42.690;23.260;2024-01-30T08:50:54;96166.63;;;0.00;56.34
6433;BME280;3249;42.690;23.260;2024-01-30T08:53:23;96164.72;;;-0.09;57.17
6433;BME280;3249;42.690;23.260;2024-01-30T08:55:53;96139.78;;;-0.26;60.48
6433;BME280;3249;42.690;23.260;2024-01-30T08:58:25;96175.97;;;-0.13;61.36
6433;BME280;3249;42.690;23.260;2024-01-30T09:00:54;96165.03;;;-0.13;61.89
6433;BME280;3249;42.690;23.260;2024-01-30T09:03:23;96178.13;;;-0.19;62.51
6433;BME280;3249;42.690;23.260;2024-01-30T09:05:56;96166.91;;;0.08;63.24
6433;BME280;3249;42.690;23.260;2024-01-30T09:08:25;96175.81;;;0.01;61.71
6433;BME280;3249;42.690;23.260;2024-01-30T09:10:56;96180.75;;;0.16;62.31
6433;BME280;3249;42.690;23.260;2024-01-30T09:13:25;96181.78;;;0.13;62.17
6433;BME280;3249;42.690;23.260;2024-01-30T09:15:54;96181.56;;;0.16;63.09
6433;BME280;3249;42.690;23.260;2024-01-30T09:18:23;96175.25;;;-0.15;65.03
6433;BME280;3249;42.690;23.260;2024-01-30T09:20:52;96178.81;;;-0.17;67.70
6433;BME280;3249;42.690;23.260;2024-01-30T09:23:26;96168.31;;;-0.24;68.77
6433;BME280;3249;42.690;23.260;2024-01-30T09:25:56;96163.88;;;-0.33;69.63
6433;BME280;3249;42.690;23.260;2024-01-30T09:28:25;96162.00;;;-0.06;68.86
6433;BME280;3249;42.690;23.260;2024-01-30T09:30:55;96154.03;;;-0.25;70.49
6433;BME280;3249;42.690;23.260;2024-01-30T09:33:24;96161.75;;;-0.39;70.74
6433;BME280;3249;42.690;23.260;2024-01-30T09:35:53;96147.69;;;-0.43;70.18
6433;BME280;3249;42.690;23.260;2024-01-30T09:38:24;96139.28;;;-0.31;69.44
6433;BME280;3249;42.690;23.260;2024-01-30T09:40:54;96150.88;;;-0.16;68.47
6433;BME280;3249;42.690;23.260;2024-01-30T09:43:24;96156.59;;;-0.01;67.26
6433;BME280;3249;42.690;23.260;2024-01-30T09:45:53;96149.66;;;0.13;67.02
6433;BME280;3249;42.690;23.260;2024-01-30T09:48:23;96147.25;;;0.12;65.31
6433;BME280;3249;42.690;23.260;2024-01-30T09:50:53;96147.69;;;-0.07;62.92
6433;BME280;3249;42.690;23.260;2024-01-30T09:53:25;96121.00;;;-0.11;65.54
6433;BME280;3249;42.690;23.260;2024-01-30T09:55:56;96155.97;;;0.32;63.60
6433;BME280;3249;42.690;23.260;2024-01-30T09:58:26;96143.31;;;0.32;64.34
6433;BME280;3249;42.690;23.260;2024-01-30T10:00:55;96149.84;;;0.47;60.80
6433;BME280;3249;42.690;23.260;2024-01-30T10:03:25;96145.88;;;0.19;61.73
6433;BME280;3249;42.690;23.260;2024-01-30T10:05:56;96146.28;;;0.02;65.71
6433;BME280;3249;42.690;23.260;2024-01-30T10:08:29;96143.78;;;-0.11;63.37
6433;BME280;3249;42.690;23.260;2024-01-30T10:11:00;96146.38;;;0.00;64.31
6433;BME280;3249;42.690;23.260;2024-01-30T10:13:30;96134.44;;;0.03;62.71
6433;BME280;3249;42.690;23.260;2024-01-30T10:15:59;96127.31;;;0.08;61.09
6433;BME280;3249;42.690;23.260;2024-01-30T10:18:29;96130.59;;;-0.03;61.93
6433;BME280;3249;42.690;23.260;2024-01-30T10:20:59;96132.38;;;0.08;62.68
6433;BME280;3249;42.690;23.260;2024-01-30T10:23:32;96137.78;;;0.38;63.22
6433;BME280;3249;42.690;23.260;2024-01-30T10:26:02;96134.59;;;0.12;62.11
6433;BME280;3249;42.690;23.260;2024-01-30T10:28:33;96133.34;;;0.17;61.64
6433;BME280;3249;42.690;23.260;2024-01-30T10:31:02;96141.81;;;0.29;59.81
6433;BME280;3249;42.690;23.260;2024-01-30T10:33:32;96138.56;;;0.27;59.95
6433;BME280;3249;42.690;23.260;2024-01-30T10:36:03;96142.13;;;0.25;60.39
6433;BME280;3249;42.690;23.260;2024-01-30T10:38:35;96136.91;;;0.39;60.79
6433;BME280;3249;42.690;23.260;2024-01-30T10:41:06;96127.34;;;0.77;57.98
6433;BME280;3249;42.690;23.260;2024-01-30T10:43:41;96140.06;;;0.99;54.89
6433;BME280;3249;42.690;23.260;2024-01-30T10:46:13;96140.00;;;0.77;57.20
6433;BME280;3249;42.690;23.260;2024-01-30T10:48:53;96129.44;;;0.83;56.43
6433;BME280;3249;42.690;23.260;2024-01-30T10:51:27;96127.13;;;0.80;56.48
6433;BME280;3249;42.690;23.260;2024-01-30T10:54:00;96122.78;;;0.82;54.84
6433;BME280;3249;42.690;23.260;2024-01-30T10:56:30;96102.28;;;0.50;57.77
6433;BME280;3249;42.690;23.260;2024-01-30T10:59:01;96100.56;;;0.51;57.67
6433;BME280;3249;42.690;23.260;2024-01-30T11:01:31;96108.59;;;0.45;58.41
6433;BME280;3249;42.690;23.260;2024-01-30T11:04:00;96103.56;;;0.56;57.95
6433;BME280;3249;42.690;23.260;2024-01-30T11:06:31;96112.88;;;0.90;62.22
6433;BME280;3249;42.690;23.260;2024-01-30T11:09:04;96099.75;;;0.50;59.21
6433;BME280;3249;42.690;23.260;2024-01-30T11:11:48;96091.91;;;0.42;60.48
6433;BME280;3249;42.690;23.260;2024-01-30T11:14:23;96090.44;;;0.51;59.87
6433;BME280;3249;42.690;23.260;2024-01-30T11:16:57;96092.44;;;0.69;60.38
6433;BME280;3249;42.690;23.260;2024-01-30T11:19:26;96093.44;;;0.56;59.77
6433;BME280;3249;42.690;23.260;2024-01-30T11:21:56;96090.97;;;0.43;59.97
6433;BME280;3249;42.690;23.260;2024-01-30T11:24:28;96098.69;;;0.42;61.46
6433;BME280;3249;42.690;23.260;2024-01-30T11:26:58;96077.16;;;0.36;62.30
6433;BME280;3249;42.690;23.260;2024-01-30T11:29:25;96090.56;;;0.60;57.85
6433;BME280;3249;42.690;23.260;2024-01-30T11:31:55;96084.97;;;0.79;57.51
6433;BME280;3249;42.690;23.260;2024-01-30T11:34:25;96092.91;;;0.74;58.53
6433;BME280;3249;42.690;23.260;2024-01-30T11:36:56;96093.25;;;0.81;58.81
6433;BME280;3249;42.690;23.260;2024-01-30T11:39:31;96077.84;;;0.84;58.22
6433;BME280;3249;42.690;23.260;2024-01-30T11:42:01;96072.66;;;0.85;56.70
6433;BME280;3249;42.690;23.260;2024-01-30T11:44:30;96053.59;;;0.47;59.20
6433;BME280;3249;42.690;23.260;2024-01-30T11:47:00;96094.50;;;0.75;59.03
6433;BME280;3249;42.690;23.260;2024-01-30T11:49:29;96087.25;;;0.71;58.38
6433;BME280;3249;42.690;23.260;2024-01-30T11:52:00;96079.59;;;0.49;59.87
6433;BME280;3249;42.690;23.260;2024-01-30T11:54:32;96081.66;;;0.44;59.57
6433;BME280;3249;42.690;23.260;2024-01-30T11:57:01;96080.16;;;0.41;60.51
6433;BME280;3249;42.690;23.260;2024-01-30T11:59:31;96069.34;;;0.16;63.61
6433;BME280;3249;42.690;23.260;2024-01-30T12:02:00;96069.41;;;0.38;63.75
6433;BME280;3249;42.690;23.260;2024-01-30T12:04:33;96069.00;;;0.44;62.92
6433;BME280;3249;42.690;23.260;2024-01-30T12:07:03;96060.94;;;0.39;63.75
6433;BME280;3249;42.690;23.260;2024-01-30T12:09:35;96055.50;;;0.43;64.07
6433;BME280;3249;42.690;23.260;2024-01-30T12:12:07;96048.97;;;0.52;62.34
6433;BME280;3249;42.690;23.260;2024-01-30T12:14:38;96053.59;;;0.47;62.36
6433;BME280;3249;42.690;23.260;2024-01-30T12:17:08;96031.09;;;0.42;62.13
6433;BME280;3249;42.690;23.260;2024-01-30T12:19:38;96040.66;;;0.50;63.00
6433;BME280;3249;42.690;23.260;2024-01-30T12:22:07;96036.41;;;0.50;63.06
6433;BME280;3249;42.690;23.260;2024-01-30T12:24:43;96038.53;;;0.67;63.77
6433;BME280;3249;42.690;23.260;2024-01-30T12:27:15;96044.19;;;0.71;61.37
6433;BME280;3249;42.690;23.260;2024-01-30T12:29:44;96036.44;;;0.61;61.35
6433;BME280;3249;42.690;23.260;2024-01-30T12:32:15;96027.00;;;0.74;61.74
6433;BME280;3249;42.690;23.260;2024-01-30T12:34:44;96028.09;;;0.94;58.90
6433;BME280;3249;42.690;23.260;2024-01-30T12:37:14;95999.84;;;0.98;57.27
6433;BME280;3249;42.690;23.260;2024-01-30T12:39:51;96031.06;;;0.99;59.10
6433;BME280;3249;42.690;23.260;2024-01-30T12:42:21;96025.78;;;1.02;59.23
6433;BME280;3249;42.690;23.260;2024-01-30T12:44:50;96024.72;;;0.82;58.68
6433;BME280;3249;42.690;23.260;2024-01-30T12:47:22;96028.09;;;0.94;58.50
6433;BME280;3249;42.690;23.260;2024-01-30T12:49:51;96020.91;;;0.77;59.40
6433;BME280;3249;42.690;23.260;2024-01-30T12:52:21;96021.50;;;0.91;59.41
6433;BME280;3249;42.690;23.260;2024-01-30T12:54:53;96005.13;;;0.95;60.59
6433;BME280;3249;42.690;23.260;2024-01-30T12:57:24;96022.41;;;0.79;58.47
6433;BME280;3249;42.690;23.260;2024-01-30T12:59:53;96006.88;;;0.84;58.33
6433;BME280;3249;42.690;23.260;2024-01-30T13:02:22;95978.53;;;0.68;61.75
6433;BME280;3249;42.690;23.260;2024-01-30T13:04:52;96002.50;;;0.75;59.58
6433;BME280;3249;42.690;23.260;2024-01-30T13:07:21;96010.19;;;0.95;60.59
6433;BME280;3249;42.690;23.260;2024-01-30T13:09:53;95998.69;;;1.13;61.25
6433;BME280;3249;42.690;23.260;2024-01-30T13:12:22;96000.72;;;1.30;56.11
6433;BME280;3249;42.690;23.260;2024-01-30T13:14:51;95991.75;;;1.15;55.43
6433;BME280;3249;42.690;23.260;2024-01-30T13:17:21;95995.97;;;1.37;56.05
6433;BME280;3249;42.690;23.260;2024-01-30T13:19:51;95966.97;;;1.19;54.90
6433;BME280;3249;42.690;23.260;2024-01-30T13:22:20;95996.47;;;1.42;57.04
6433;BME280;3249;42.690;23.260;2024-01-30T13:24:53;95997.63;;;1.38;57.90
6433;BME280;3249;42.690;23.260;2024-01-30T13:27:22;95984.63;;;1.20;55.41
6433;BME280;3249;42.690;23.260;2024-01-30T13:29:52;95996.69;;;1.28;58.55